sensor_id;sensor_type;location;lat;lon;timestamp;pressure;altitude;pressure_sealevel;temperature;humidity
9257;BME280;4665;51.368;6.782;2023-07-24T00:00:13;100343.31;;;17.73;100.00
9257;BME280;4665;51.368;6.782;2023-07-24T00:02:39;100339.19;;;17.77;100.00
9257;BME280;4665;51.368;6.782;2023-07-24T00:05:04;100324.09;;;17.69;100.00
9257;BME280;4665;51.368;6.782;2023-07-24T00:07:30;100311.44;;;17.70;100.00
9257;BME280;4665;51.368;6.782;2023-07-24T00:09:55;100311.00;;;17.73;100.00
9257;BME280;4665;51.368;6.782;2023-07-24T00:12:21;100313.31;;;17.69;100.00
9257;BME280;4665;51.368;6.782;2023-07-24T00:14:47;100307.69;;;17.71;100.00
9257;BME280;4665;51.368;6.782;2023-07-24T00:17:13;100325.09;;;17.81;100.00
9257;BME280;4665;51.368;6.782;2023-07-24T00:19:38;100309.19;;;17.66;100.00
9257;BME280;4665;51.368;6.782;2023-07-24T00:22:04;100301.94;;;17.67;100.00
9257;BME280;4665;51.368;6.782;2023-07-24T00:24:31;100297.78;;;17.64;100.00
9257;BME280;4665;51.368;6.782;2023-07-24T00:26:56;100305.84;;;17.71;100.00
9257;BME280;4665;51.368;6.782;2023-07-24T00:29:22;100300.25;;;17.66;100.00
9257;BME280;4665;51.368;6.782;2023-07-24T00:31:47;100308.75;;;17.70;100.00
9257;BME280;4665;51.368;6.782;2023-07-24T00:34:13;100308.31;;;17.73;100.00
9257;BME280;4665;51.368;6.782;2023-07-24T00:36:38;100293.66;;;17.62;100.00
9257;BME280;4665;51.368;6.782;2023-07-24T00:39:04;100294.28;;;17.64;100.00
9257;BME280;4665;51.368;6.782;2023-07-24T00:41:29;100299.44;;;17.59;100.00
9257;BME280;4665;51.368;6.782;2023-07-24T00:43:54;100304.44;;;17.62;100.00
9257;BME280;4665;51.368;6.782;2023-07-24T00:46:20;100300.88;;;17.61;100.00
9257;BME280;4665;51.368;6.782;2023-07-24T00:48:45;100292.84;;;17.55;100.00
9257;BME280;4665;51.368;6.782;2023-07-24T00:51:11;100284.81;;;17.48;100.00
9257;BME280;4665;51.368;6.782;2023-07-24T00:53:36;100284.81;;;17.48;100.00
9257;BME280;4665;51.368;6.782;2023-07-24T00:56:02;100289.94;;;17.56;100.00
9257;BME280;4665;51.368;6.782;2023-07-24T00:58:28;100289.94;;;17.56;100.00
9257;BME280;4665;51.368;6.782;2023-07-24T01:00:53;100281.22;;;17.54;100.00
9257;BME280;4665;51.368;6.782;2023-07-24T01:03:19;100262.63;;;17.46;100.00
9257;BME280;4665;51.368;6.782;2023-07-24T01:05:44;100267.19;;;17.52;100.00
9257;BME280;4665;51.368;6.782;2023-07-24T01:08:09;100258.28;;;17.45;100.00
9257;BME280;4665;51.368;6.782;2023-07-24T01:10:35;100264.28;;;17.47;100.00
9257;BME280;4665;51.368;6.782;2023-07-24T01:13:16;100269.03;;;17.52;100.00
9257;BME280;4665;51.368;6.782;2023-07-24T01:15:55;100240.91;;;17.41;100.00
9257;BME280;4665;51.368;6.782;2023-07-24T01:18:24;100252.06;;;17.44;100.00
9257;BME280;4665;51.368;6.782;2023-07-24T01:20:55;100265.09;;;17.54;100.00
9257;BME280;4665;51.368;6.782;2023-07-24T01:26:09;100243.16;;;17.51;100.00
9257;BME280;4665;51.368;6.782;2023-07-24T01:28:35;100242.34;;;17.50;100.00
9257;BME280;4665;51.368;6.782;2023-07-24T01:31:00;100237.34;;;17.47;100.00
9257;BME280;4665;51.368;6.782;2023-07-24T01:33:26;100225.56;;;17.48;100.00
9257;BME280;4665;51.368;6.782;2023-07-24T01:35:57;100224.50;;;17.49;100.00
9257;BME280;4665;51.368;6.782;2023-07-24T01:38:24;100229.91;;;17.49;100.00
9257;BME280;4665;51.368;6.782;2023-07-24T01:40:52;100231.56;;;17.50;100.00
9257;BME280;4665;51.368;6.782;2023-07-24T01:43:18;100218.50;;;17.47;100.00
9257;BME280;4665;51.368;6.782;2023-07-24T01:45:43;100212.47;;;17.52;100.00
9257;BME280;4665;51.368;6.782;2023-07-24T01:48:09;100210.44;;;17.47;100.00
9257;BME280;4665;51.368;6.782;2023-07-24T01:50:34;100207.34;;;17.50;100.00
9257;BME280;4665;51.368;6.782;2023-07-24T01:53:00;100200.72;;;17.46;100.00
9257;BME280;4665;51.368;6.782;2023-07-24T01:55:25;100179.38;;;17.44;100.00
9257;BME280;4665;51.368;6.782;2023-07-24T01:57:50;100181.72;;;17.28;100.00
9257;BME280;4665;51.368;6.782;2023-07-24T02:00:16;100181.13;;;17.25;100.00
9257;BME280;4665;51.368;6.782;2023-07-24T02:02:41;100188.38;;;17.25;100.00
9257;BME280;4665;51.368;6.782;2023-07-24T02:05:07;100174.91;;;17.25;100.00
9257;BME280;4665;51.368;6.782;2023-07-24T02:07:32;100181.72;;;17.28;100.00
9257;BME280;4665;51.368;6.782;2023-07-24T02:09:58;100178.44;;;17.25;100.00
9257;BME280;4665;51.368;6.782;2023-07-24T02:12:23;100174.69;;;17.27;100.00
9257;BME280;4665;51.368;6.782;2023-07-24T02:14:49;100188.34;;;17.38;100.00
9257;BME280;4665;51.368;6.782;2023-07-24T02:17:17;100186.84;;;17.42;100.00
9257;BME280;4665;51.368;6.782;2023-07-24T02:19:43;100180.00;;;17.46;100.00
9257;BME280;4665;51.368;6.782;2023-07-24T02:22:08;100167.00;;;17.37;100.00
9257;BME280;4665;51.368;6.782;2023-07-24T02:24:33;100154.97;;;17.39;100.00
9257;BME280;4665;51.368;6.782;2023-07-24T02:26:59;100160.78;;;17.36;100.00
9257;BME280;4665;51.368;6.782;2023-07-24T02:29:25;100149.63;;;17.33;100.00
9257;BME280;4665;51.368;6.782;2023-07-24T02:31:50;100146.28;;;17.37;100.00
9257;BME280;4665;51.368;6.782;2023-07-24T02:34:16;100162.19;;;17.45;100.00
9257;BME280;4665;51.368;6.782;2023-07-24T02:36:41;100152.91;;;17.41;100.00
9257;BME280;4665;51.368;6.782;2023-07-24T02:39:07;100152.06;;;17.41;100.00
9257;BME280;4665;51.368;6.782;2023-07-24T02:41:33;100157.84;;;17.44;100.00
9257;BME280;4665;51.368;6.782;2023-07-24T02:43:58;100175.19;;;17.55;100.00
9257;BME280;4665;51.368;6.782;2023-07-24T02:46:23;100150.59;;;17.45;100.00
9257;BME280;4665;51.368;6.782;2023-07-24T02:48:50;100153.50;;;17.43;100.00
9257;BME280;4665;51.368;6.782;2023-07-24T02:51:16;100152.03;;;17.48;100.00
9257;BME280;4665;51.368;6.782;2023-07-24T02:53:41;100139.41;;;17.48;100.00
9257;BME280;4665;51.368;6.782;2023-07-24T02:56:07;100147.25;;;17.50;100.00
9257;BME280;4665;51.368;6.782;2023-07-24T02:58:32;100163.97;;;17.58;100.00
9257;BME280;4665;51.368;6.782;2023-07-24T03:01:05;100162.34;;;17.57;100.00
9257;BME280;4665;51.368;6.782;2023-07-24T03:03:32;100165.22;;;17.62;100.00
9257;BME280;4665;51.368;6.782;2023-07-24T03:05:57;100149.53;;;17.53;100.00
9257;BME280;4665;51.368;6.782;2023-07-24T03:08:23;100153.25;;;17.52;100.00
9257;BME280;4665;51.368;6.782;2023-07-24T03:10:48;100152.22;;;17.53;100.00
9257;BME280;4665;51.368;6.782;2023-07-24T03:13:13;100166.06;;;17.56;100.00
9257;BME280;4665;51.368;6.782;2023-07-24T03:15:39;100164.44;;;17.55;100.00
9257;BME280;4665;51.368;6.782;2023-07-24T03:18:04;100163.78;;;17.60;100.00
9257;BME280;4665;51.368;6.782;2023-07-24T03:20:29;100144.53;;;17.56;100.00
9257;BME280;4665;51.368;6.782;2023-07-24T03:22:55;100135.81;;;17.54;100.00
9257;BME280;4665;51.368;6.782;2023-07-24T03:25:20;100142.31;;;17.46;100.00
9257;BME280;4665;51.368;6.782;2023-07-24T03:27:46;100141.28;;;17.48;100.00
9257;BME280;4665;51.368;6.782;2023-07-24T03:30:11;100130.28;;;17.49;100.00
9257;BME280;4665;51.368;6.782;2023-07-24T03:32:37;100138.53;;;17.54;100.00
9257;BME280;4665;51.368;6.782;2023-07-24T03:35:04;100139.13;;;17.56;100.00
9257;BME280;4665;51.368;6.782;2023-07-24T03:37:30;100120.97;;;17.45;100.00
9257;BME280;4665;51.368;6.782;2023-07-24T03:39:55;100125.13;;;17.48;100.00
9257;BME280;4665;51.368;6.782;2023-07-24T03:42:29;100132.97;;;17.49;100.00
9257;BME280;4665;51.368;6.782;2023-07-24T03:44:55;100134.41;;;17.52;100.00
9257;BME280;4665;51.368;6.782;2023-07-24T03:47:21;100131.69;;;17.52;100.00
9257;BME280;4665;51.368;6.782;2023-07-24T03:49:47;100110.63;;;17.42;100.00
9257;BME280;4665;51.368;6.782;2023-07-24T03:52:12;100112.72;;;17.40;100.00
9257;BME280;4665;51.368;6.782;2023-07-24T03:54:37;100103.22;;;17.37;100.00
9257;BME280;4665;51.368;6.782;2023-07-24T03:57:03;100097.00;;;17.37;100.00
9257;BME280;4665;51.368;6.782;2023-07-24T03:59:30;100105.09;;;17.37;100.00
9257;BME280;4665;51.368;6.782;2023-07-24T04:01:56;100125.94;;;17.48;100.00
9257;BME280;4665;51.368;6.782;2023-07-24T04:04:21;100118.47;;;17.50;100.00
9257;BME280;4665;51.368;6.782;2023-07-24T04:06:47;100105.69;;;17.39;100.00
9257;BME280;4665;51.368;6.782;2023-07-24T04:09:12;100091.63;;;17.37;100.00
9257;BME280;4665;51.368;6.782;2023-07-24T04:11:40;100112.09;;;17.38;100.00
9257;BME280;4665;51.368;6.782;2023-07-24T04:14:05;100124.50;;;17.45;100.00
9257;BME280;4665;51.368;6.782;2023-07-24T04:16:30;100101.97;;;17.33;100.00
9257;BME280;4665;51.368;6.782;2023-07-24T04:18:56;100117.72;;;17.36;100.00
9257;BME280;4665;51.368;6.782;2023-07-24T04:21:22;100116.06;;;17.35;100.00
9257;BME280;4665;51.368;6.782;2023-07-24T04:23:48;100121.84;;;17.39;100.00
9257;BME280;4665;51.368;6.782;2023-07-24T04:26:13;100125.56;;;17.38;100.00
9257;BME280;4665;51.368;6.782;2023-07-24T04:28:39;100095.59;;;17.28;100.00
9257;BME280;4665;51.368;6.782;2023-07-24T04:31:04;100103.88;;;17.26;100.00
9257;BME280;4665;51.368;6.782;2023-07-24T04:33:29;100113.78;;;17.39;100.00
9257;BME280;4665;51.368;6.782;2023-07-24T04:35:55;100105.13;;;17.30;100.00
9257;BME280;4665;51.368;6.782;2023-07-24T04:38:21;100110.69;;;17.29;100.00
9257;BME280;4665;51.368;6.782;2023-07-24T04:40:46;100106.19;;;17.22;100.00
9257;BME280;4665;51.368;6.782;2023-07-24T04:43:12;100114.28;;;17.22;100.00
9257;BME280;4665;51.368;6.782;2023-07-24T04:45:37;100125.41;;;17.26;100.00
9257;BME280;4665;51.368;6.782;2023-07-24T04:48:03;100111.59;;;17.22;100.00
9257;BME280;4665;51.368;6.782;2023-07-24T04:50:28;100096.25;;;17.23;100.00
9257;BME280;4665;51.368;6.782;2023-07-24T04:52:55;100105.72;;;17.32;100.00
9257;BME280;4665;51.368;6.782;2023-07-24T04:55:20;100114.00;;;17.31;100.00
9257;BME280;4665;51.368;6.782;2023-07-24T04:57:46;100104.31;;;17.23;100.00
9257;BME280;4665;51.368;6.782;2023-07-24T05:00:12;100099.16;;;17.21;100.00
9257;BME280;4665;51.368;6.782;2023-07-24T05:02:37;100115.91;;;17.23;100.00
9257;BME280;4665;51.368;6.782;2023-07-24T05:05:03;100124.81;;;17.24;100.00
9257;BME280;4665;51.368;6.782;2023-07-24T05:07:28;100129.38;;;17.23;100.00
9257;BME280;4665;51.368;6.782;2023-07-24T05:09:54;100150.44;;;17.33;100.00
9257;BME280;4665;51.368;6.782;2023-07-24T05:12:19;100156.06;;;17.32;100.00
9257;BME280;4665;51.368;6.782;2023-07-24T05:14:44;100139.31;;;17.23;100.00
9257;BME280;4665;51.368;6.782;2023-07-24T05:17:10;100154.19;;;17.32;100.00
9257;BME280;4665;51.368;6.782;2023-07-24T05:19:35;100138.06;;;17.25;100.00
9257;BME280;4665;51.368;6.782;2023-07-24T05:22:01;100157.09;;;17.24;100.00
9257;BME280;4665;51.368;6.782;2023-07-24T05:24:26;100145.75;;;17.22;100.00
9257;BME280;4665;51.368;6.782;2023-07-24T05:26:51;100179.03;;;17.34;100.00
9257;BME280;4665;51.368;6.782;2023-07-24T05:29:17;100156.91;;;17.25;100.00
9257;BME280;4665;51.368;6.782;2023-07-24T05:31:42;100162.63;;;17.36;100.00
9257;BME280;4665;51.368;6.782;2023-07-24T05:34:07;100153.75;;;17.29;100.00
9257;BME280;4665;51.368;6.782;2023-07-24T05:36:33;100161.84;;;17.29;100.00
9257;BME280;4665;51.368;6.782;2023-07-24T05:38:58;100161.63;;;17.37;100.00
9257;BME280;4665;51.368;6.782;2023-07-24T05:41:24;100159.31;;;17.40;100.00
9257;BME280;4665;51.368;6.782;2023-07-24T05:43:49;100143.00;;;17.29;100.00
9257;BME280;4665;51.368;6.782;2023-07-24T05:46:15;100156.06;;;17.32;100.00
9257;BME280;4665;51.368;6.782;2023-07-24T05:48:40;100165.31;;;17.42;100.00
9257;BME280;4665;51.368;6.782;2023-07-24T05:51:06;100150.84;;;17.37;100.00
9257;BME280;4665;51.368;6.782;2023-07-24T05:53:31;100169.63;;;17.50;100.00
9257;BME280;4665;51.368;6.782;2023-07-24T05:56:00;100156.16;;;17.50;100.00
9257;BME280;4665;51.368;6.782;2023-07-24T05:58:26;100159.88;;;17.49;100.00
9257;BME280;4665;51.368;6.782;2023-07-24T06:00:51;100156.16;;;17.50;100.00
9257;BME280;4665;51.368;6.782;2023-07-24T06:03:17;100145.84;;;17.40;100.00
9257;BME280;4665;51.368;6.782;2023-07-24T06:05:42;100133.88;;;17.36;100.00
9257;BME280;4665;51.368;6.782;2023-07-24T06:08:07;100136.94;;;17.40;100.00
9257;BME280;4665;51.368;6.782;2023-07-24T06:10:37;100157.03;;;17.44;100.00
9257;BME280;4665;51.368;6.782;2023-07-24T06:13:02;100160.06;;;17.54;100.00
9257;BME280;4665;51.368;6.782;2023-07-24T06:15:27;100156.81;;;17.45;100.00
9257;BME280;4665;51.368;6.782;2023-07-24T06:17:53;100156.41;;;17.42;100.00
9257;BME280;4665;51.368;6.782;2023-07-24T06:20:18;100165.44;;;17.54;100.00
9257;BME280;4665;51.368;6.782;2023-07-24T06:22:44;100164.88;;;17.52;100.00
9257;BME280;4665;51.368;6.782;2023-07-24T06:25:09;100164.00;;;17.52;100.00
9257;BME280;4665;51.368;6.782;2023-07-24T06:27:34;100156.13;;;17.57;100.00
9257;BME280;4665;51.368;6.782;2023-07-24T06:30:00;100170.81;;;17.61;100.00
9257;BME280;4665;51.368;6.782;2023-07-24T06:32:25;100155.94;;;17.52;100.00
9257;BME280;4665;51.368;6.782;2023-07-24T06:34:50;100148.50;;;17.47;100.00
9257;BME280;4665;51.368;6.782;2023-07-24T06:37:16;100162.34;;;17.57;100.00
9257;BME280;4665;51.368;6.782;2023-07-24T06:39:41;100154.09;;;17.52;100.00
9257;BME280;4665;51.368;6.782;2023-07-24T06:42:07;100174.91;;;17.70;100.00
9257;BME280;4665;51.368;6.782;2023-07-24T06:44:32;100152.19;;;17.59;100.00
9257;BME280;4665;51.368;6.782;2023-07-24T06:46:58;100152.78;;;17.61;100.00
9257;BME280;4665;51.368;6.782;2023-07-24T06:49:23;100153.16;;;17.72;100.00
9257;BME280;4665;51.368;6.782;2023-07-24T06:51:48;100158.91;;;17.82;100.00
9257;BME280;4665;51.368;6.782;2023-07-24T06:54:14;100179.16;;;17.91;100.00
9257;BME280;4665;51.368;6.782;2023-07-24T06:56:39;100161.81;;;17.80;100.00
9257;BME280;4665;51.368;6.782;2023-07-24T06:59:05;100163.63;;;17.86;100.00
9257;BME280;4665;51.368;6.782;2023-07-24T07:01:30;100171.34;;;17.83;100.00
9257;BME280;4665;51.368;6.782;2023-07-24T07:03:55;100147.31;;;17.75;100.00
9257;BME280;4665;51.368;6.782;2023-07-24T07:06:21;100160.13;;;17.86;100.00
9257;BME280;4665;51.368;6.782;2023-07-24T07:08:46;100169.63;;;17.88;100.00
9257;BME280;4665;51.368;6.782;2023-07-24T07:11:12;100166.72;;;17.90;100.00
9257;BME280;4665;51.368;6.782;2023-07-24T07:13:37;100155.38;;;17.81;100.00
9257;BME280;4665;51.368;6.782;2023-07-24T07:16:02;100148.56;;;17.72;100.00
9257;BME280;4665;51.368;6.782;2023-07-24T07:18:28;100142.34;;;17.78;100.00
9257;BME280;4665;51.368;6.782;2023-07-24T07:20:54;100148.78;;;17.71;100.00
9257;BME280;4665;51.368;6.782;2023-07-24T07:23:20;100145.84;;;17.79;100.00
9257;BME280;4665;51.368;6.782;2023-07-24T07:25:46;100151.00;;;17.87;100.00
9257;BME280;4665;51.368;6.782;2023-07-24T07:28:12;100139.41;;;17.80;100.00
9257;BME280;4665;51.368;6.782;2023-07-24T07:30:38;100133.03;;;17.81;100.00
9257;BME280;4665;51.368;6.782;2023-07-24T07:33:03;100137.97;;;17.77;100.00
9257;BME280;4665;51.368;6.782;2023-07-24T07:35:31;100143.50;;;17.89;100.00
9257;BME280;4665;51.368;6.782;2023-07-24T07:37:57;100152.41;;;17.96;100.00
9257;BME280;4665;51.368;6.782;2023-07-24T07:40:22;100148.22;;;18.00;100.00
9257;BME280;4665;51.368;6.782;2023-07-24T07:42:48;100144.47;;;18.01;100.00
9257;BME280;4665;51.368;6.782;2023-07-24T07:45:14;100126.47;;;17.95;100.00
9257;BME280;4665;51.368;6.782;2023-07-24T07:47:39;100134.69;;;18.07;100.00
9257;BME280;4665;51.368;6.782;2023-07-24T07:50:05;100130.16;;;18.01;100.00
9257;BME280;4665;51.368;6.782;2023-07-24T07:52:30;100133.41;;;18.09;100.00
9257;BME280;4665;51.368;6.782;2023-07-24T07:54:55;100146.22;;;18.14;100.00
9257;BME280;4665;51.368;6.782;2023-07-24T07:57:21;100152.84;;;18.18;100.00
9257;BME280;4665;51.368;6.782;2023-07-24T07:59:46;100155.59;;;18.12;100.00
9257;BME280;4665;51.368;6.782;2023-07-24T08:02:12;100146.78;;;17.98;100.00
9257;BME280;4665;51.368;6.782;2023-07-24T08:04:37;100150.56;;;17.90;100.00
9257;BME280;4665;51.368;6.782;2023-07-24T08:07:02;100156.78;;;17.91;100.00
9257;BME280;4665;51.368;6.782;2023-07-24T08:09:28;100162.97;;;17.91;100.00
9257;BME280;4665;51.368;6.782;2023-07-24T08:11:53;100150.81;;;17.82;100.00
9257;BME280;4665;51.368;6.782;2023-07-24T08:14:19;100168.38;;;17.91;100.00
9257;BME280;4665;51.368;6.782;2023-07-24T08:16:44;100151.38;;;17.91;100.00
9257;BME280;4665;51.368;6.782;2023-07-24T08:19:10;100152.97;;;17.98;100.00
9257;BME280;4665;51.368;6.782;2023-07-24T08:21:35;100154.00;;;18.04;100.00
9257;BME280;4665;51.368;6.782;2023-07-24T08:24:01;100154.97;;;18.09;100.00
9257;BME280;4665;51.368;6.782;2023-07-24T08:26:27;100160.53;;;18.15;100.00
9257;BME280;4665;51.368;6.782;2023-07-24T08:28:53;100162.81;;;18.18;100.00
9257;BME280;4665;51.368;6.782;2023-07-24T08:31:18;100166.31;;;18.18;100.00
9257;BME280;4665;51.368;6.782;2023-07-24T08:33:44;100158.28;;;18.12;100.00
9257;BME280;4665;51.368;6.782;2023-07-24T08:36:09;100151.47;;;18.09;100.00
9257;BME280;4665;51.368;6.782;2023-07-24T08:38:37;100138.03;;;18.02;100.00
9257;BME280;4665;51.368;6.782;2023-07-24T08:41:03;100148.09;;;18.14;100.00
9257;BME280;4665;51.368;6.782;2023-07-24T08:43:29;100146.13;;;18.02;100.00
9257;BME280;4665;51.368;6.782;2023-07-24T08:45:57;100146.63;;;18.18;100.00
9257;BME280;4665;51.368;6.782;2023-07-24T08:48:23;100128.03;;;18.09;100.00
9257;BME280;4665;51.368;6.782;2023-07-24T08:50:50;100124.72;;;18.33;100.00
9257;BME280;4665;51.368;6.782;2023-07-24T08:53:19;100141.16;;;18.49;100.00
9257;BME280;4665;51.368;6.782;2023-07-24T08:55:45;100133.00;;;18.56;100.00
9257;BME280;4665;51.368;6.782;2023-07-24T08:58:13;100120.13;;;18.58;100.00
9257;BME280;4665;51.368;6.782;2023-07-24T09:00:39;100121.09;;;18.45;100.00
9257;BME280;4665;51.368;6.782;2023-07-24T09:03:04;100124.41;;;18.47;100.00
9257;BME280;4665;51.368;6.782;2023-07-24T09:05:30;100118.00;;;18.42;100.00
9257;BME280;4665;51.368;6.782;2023-07-24T09:07:55;100107.22;;;18.42;100.00
9257;BME280;4665;51.368;6.782;2023-07-24T09:10:25;100097.09;;;18.37;100.00
9257;BME280;4665;51.368;6.782;2023-07-24T09:12:51;100110.97;;;18.41;100.00
9257;BME280;4665;51.368;6.782;2023-07-24T09:15:16;100104.56;;;18.35;100.00
9257;BME280;4665;51.368;6.782;2023-07-24T09:17:51;100108.69;;;18.38;100.00
9257;BME280;4665;51.368;6.782;2023-07-24T09:20:18;100124.06;;;18.37;100.00
9257;BME280;4665;51.368;6.782;2023-07-24T09:22:53;100113.50;;;18.36;100.00
9257;BME280;4665;51.368;6.782;2023-07-24T09:25:30;100127.09;;;18.47;100.00
9257;BME280;4665;51.368;6.782;2023-07-24T09:27:57;100116.72;;;18.44;100.00
9257;BME280;4665;51.368;6.782;2023-07-24T09:30:23;100121.09;;;18.45;100.00
9257;BME280;4665;51.368;6.782;2023-07-24T09:32:55;100119.44;;;18.44;100.00
9257;BME280;4665;51.368;6.782;2023-07-24T09:35:21;100109.75;;;18.37;100.00
9257;BME280;4665;51.368;6.782;2023-07-24T09:38:10;100111.41;;;18.38;100.00
9257;BME280;4665;51.368;6.782;2023-07-24T09:40:45;100093.38;;;18.38;100.00
9257;BME280;4665;51.368;6.782;2023-07-24T09:43:20;100094.25;;;18.32;100.00
9257;BME280;4665;51.368;6.782;2023-07-24T09:45:47;100092.91;;;18.41;100.00
9257;BME280;4665;51.368;6.782;2023-07-24T09:48:14;100094.56;;;18.42;100.00
9257;BME280;4665;51.368;6.782;2023-07-24T09:50:47;100094.34;;;18.44;100.00
9257;BME280;4665;51.368;6.782;2023-07-24T09:55:58;100087.88;;;18.45;100.00
9257;BME280;4665;51.368;6.782;2023-07-24T09:58:24;100082.28;;;18.46;100.00
9257;BME280;4665;51.368;6.782;2023-07-24T10:00:51;100077.34;;;18.43;100.00
9257;BME280;4665;51.368;6.782;2023-07-24T10:03:17;100080.41;;;18.47;100.00
9257;BME280;4665;51.368;6.782;2023-07-24T10:05:47;100077.50;;;18.48;100.00
9257;BME280;4665;51.368;6.782;2023-07-24T10:08:17;100069.78;;;18.52;100.00
9257;BME280;4665;51.368;6.782;2023-07-24T10:10:42;100069.88;;;18.64;100.00
9257;BME280;4665;51.368;6.782;2023-07-24T10:13:09;100062.66;;;18.76;100.00
9257;BME280;4665;51.368;6.782;2023-07-24T10:15:44;100062.16;;;18.86;100.00
9257;BME280;4665;51.368;6.782;2023-07-24T10:18:10;100054.59;;;18.95;100.00
9257;BME280;4665;51.368;6.782;2023-07-24T10:20:37;100054.41;;;19.08;100.00
9257;BME280;4665;51.368;6.782;2023-07-24T10:23:04;100043.56;;;18.96;100.00
9257;BME280;4665;51.368;6.782;2023-07-24T10:25:36;100032.91;;;19.01;100.00
9257;BME280;4665;51.368;6.782;2023-07-24T10:28:07;100037.50;;;19.01;100.00
9257;BME280;4665;51.368;6.782;2023-07-24T10:30:35;100024.75;;;18.89;100.00
9257;BME280;4665;51.368;6.782;2023-07-24T10:33:17;100028.06;;;18.91;100.00
9257;BME280;4665;51.368;6.782;2023-07-24T10:35:44;100045.00;;;18.99;100.00
9257;BME280;4665;51.368;6.782;2023-07-24T10:38:15;100037.78;;;18.92;100.00
9257;BME280;4665;51.368;6.782;2023-07-24T10:40:42;100040.50;;;18.92;100.00
9257;BME280;4665;51.368;6.782;2023-07-24T10:43:10;100045.50;;;18.89;100.00
9257;BME280;4665;51.368;6.782;2023-07-24T10:45:45;100036.91;;;18.80;100.00
9257;BME280;4665;51.368;6.782;2023-07-24T10:48:12;100032.59;;;18.72;100.00
9257;BME280;4665;51.368;6.782;2023-07-24T10:50:42;100040.13;;;18.70;100.00
9257;BME280;4665;51.368;6.782;2023-07-24T10:53:10;100045.13;;;18.67;100.00
9257;BME280;4665;51.368;6.782;2023-07-24T10:55:35;100037.78;;;18.56;100.00
9257;BME280;4665;51.368;6.782;2023-07-24T10:58:00;100032.53;;;18.61;100.00
9257;BME280;4665;51.368;6.782;2023-07-24T11:00:26;100027.75;;;18.63;100.00
9257;BME280;4665;51.368;6.782;2023-07-24T11:02:53;100032.84;;;18.71;100.00
9257;BME280;4665;51.368;6.782;2023-07-24T11:05:22;100034.66;;;18.77;100.00
9257;BME280;4665;51.368;6.782;2023-07-24T11:07:48;100035.84;;;18.81;100.00
9257;BME280;4665;51.368;6.782;2023-07-24T11:10:18;100027.53;;;18.83;100.00
9257;BME280;4665;51.368;6.782;2023-07-24T11:12:44;100036.91;;;18.80;100.00
9257;BME280;4665;51.368;6.782;2023-07-24T11:15:11;100023.56;;;18.67;100.00
9257;BME280;4665;51.368;6.782;2023-07-24T11:17:38;100022.22;;;18.58;100.00
9257;BME280;4665;51.368;6.782;2023-07-24T11:20:13;100023.56;;;18.48;100.00
9257;BME280;4665;51.368;6.782;2023-07-24T11:22:39;100026.38;;;18.35;100.00
9257;BME280;4665;51.368;6.782;2023-07-24T11:25:06;100027.44;;;18.16;100.00
9257;BME280;4665;51.368;6.782;2023-07-24T11:27:32;100035.16;;;17.87;100.00
9257;BME280;4665;51.368;6.782;2023-07-24T11:29:58;100036.94;;;17.68;100.00
9257;BME280;4665;51.368;6.782;2023-07-24T11:32:23;100032.66;;;17.60;100.00
9257;BME280;4665;51.368;6.782;2023-07-24T11:34:50;100030.44;;;17.51;100.00
9257;BME280;4665;51.368;6.782;2023-07-24T11:37:16;100048.09;;;17.40;100.00
9257;BME280;4665;51.368;6.782;2023-07-24T11:39:42;100060.78;;;17.33;100.00
9257;BME280;4665;51.368;6.782;2023-07-24T11:42:07;100054.00;;;17.23;100.00
9257;BME280;4665;51.368;6.782;2023-07-24T11:44:33;100072.63;;;17.25;100.00
9257;BME280;4665;51.368;6.782;2023-07-24T11:47:05;100066.69;;;17.16;100.00
9257;BME280;4665;51.368;6.782;2023-07-24T11:49:32;100068.09;;;17.19;100.00
9257;BME280;4665;51.368;6.782;2023-07-24T11:52:03;100063.53;;;17.19;100.00
9257;BME280;4665;51.368;6.782;2023-07-24T11:54:28;100051.31;;;17.23;100.00
9257;BME280;4665;51.368;6.782;2023-07-24T11:56:54;100046.72;;;17.31;100.00
9257;BME280;4665;51.368;6.782;2023-07-24T11:59:19;100052.22;;;17.42;100.00
9257;BME280;4665;51.368;6.782;2023-07-24T12:01:48;100043.13;;;17.43;100.00
9257;BME280;4665;51.368;6.782;2023-07-24T12:04:14;100019.09;;;17.42;100.00
9257;BME280;4665;51.368;6.782;2023-07-24T12:06:40;100044.28;;;17.54;100.00
9257;BME280;4665;51.368;6.782;2023-07-24T12:09:06;100053.63;;;17.52;100.00
9257;BME280;4665;51.368;6.782;2023-07-24T12:11:32;100055.78;;;17.43;100.00
9257;BME280;4665;51.368;6.782;2023-07-24T12:13:58;100053.53;;;17.33;100.00
9257;BME280;4665;51.368;6.782;2023-07-24T12:16:23;100084.19;;;17.32;100.00
9257;BME280;4665;51.368;6.782;2023-07-24T12:18:49;100089.78;;;17.31;100.00
9257;BME280;4665;51.368;6.782;2023-07-24T12:21:14;100083.16;;;17.27;100.00
9257;BME280;4665;51.368;6.782;2023-07-24T12:23:39;100104.22;;;17.43;100.00
9257;BME280;4665;51.368;6.782;2023-07-24T12:26:05;100111.09;;;17.39;100.00
9257;BME280;4665;51.368;6.782;2023-07-24T12:28:30;100119.78;;;17.41;100.00
9257;BME280;4665;51.368;6.782;2023-07-24T12:30:55;100110.28;;;17.32;100.00
9257;BME280;4665;51.368;6.782;2023-07-24T12:33:21;100084.22;;;17.25;100.00
9257;BME280;4665;51.368;6.782;2023-07-24T12:35:52;100087.25;;;17.36;100.00
9257;BME280;4665;51.368;6.782;2023-07-24T12:38:18;100100.72;;;17.36;100.00
9257;BME280;4665;51.368;6.782;2023-07-24T12:40:43;100083.00;;;17.21;100.00
9257;BME280;4665;51.368;6.782;2023-07-24T12:43:09;100080.47;;;17.27;100.00
9257;BME280;4665;51.368;6.782;2023-07-24T12:45:35;100057.16;;;17.14;100.00
9257;BME280;4665;51.368;6.782;2023-07-24T12:48:00;100072.63;;;17.25;100.00
9257;BME280;4665;51.368;6.782;2023-07-24T12:50:26;100050.31;;;17.18;100.00
9257;BME280;4665;51.368;6.782;2023-07-24T12:52:51;100059.13;;;17.38;100.00
9257;BME280;4665;51.368;6.782;2023-07-24T12:55:16;100049.34;;;17.44;100.00
9257;BME280;4665;51.368;6.782;2023-07-24T12:57:42;100049.50;;;17.49;100.00
9257;BME280;4665;51.368;6.782;2023-07-24T13:00:08;100028.72;;;17.56;100.00